Time;durP1;ratioP1;P1;durP2;ratioP2;P2;SDS_P1;SDS_P2;PMS_P1;PMS_P2;Temp;Humidity;BMP_temperature;BMP_pressure;BME280_temperature;BME280_humidity;BME280_pressure;Samples;Min_cycle;Max_cycle;Signal;HPM_P1;HPM_P2
2022/02/27 00:01:52;;;;;;;20.13;7.78;;;4.10;99.90;;;;;;5011093;28;20048;-50
2022/02/27 00:04:18;;;;;;;13.52;5.75;;;4.20;99.90;;;;;;5010278;28;20030;-49
2022/02/27 00:06:43;;;;;;;16.92;6.68;;;4.20;99.90;;;;;;5010698;28;20105;-48
2022/02/27 00:09:09;;;;;;;8.98;5.82;;;4.10;99.90;;;;;;5010337;28;20533;-49
2022/02/27 00:11:35;;;;;;;13.77;7.47;;;4.00;99.90;;;;;;5010321;28;20037;-52
2022/02/27 00:14:00;;;;;;;19.92;6.80;;;3.90;99.90;;;;;;5010401;28;20048;-52
2022/02/27 00:16:26;;;;;;;21.38;6.47;;;4.00;99.90;;;;;;5011343;28;20460;-52
2022/02/27 00:18:51;;;;;;;11.80;6.43;;;4.00;99.90;;;;;;5011007;28;20084;-49
2022/02/27 00:21:17;;;;;;;21.58;6.38;;;4.10;99.90;;;;;;5010584;28;20034;-55
2022/02/27 00:23:42;;;;;;;19.58;6.85;;;4.10;99.90;;;;;;5009870;28;20044;-49
2022/02/27 00:26:08;;;;;;;16.30;6.38;;;3.90;99.90;;;;;;5010325;28;20026;-55
2022/02/27 00:28:34;;;;;;;17.67;6.80;;;3.90;99.90;;;;;;5010256;28;20496;-53
2022/02/27 00:31:00;;;;;;;20.58;7.68;;;3.90;99.90;;;;;;5010084;28;20101;-51
2022/02/27 00:33:25;;;;;;;17.13;6.90;;;3.90;99.90;;;;;;5008300;28;20120;-51
2022/02/27 00:35:51;;;;;;;19.48;6.82;;;3.70;99.90;;;;;;5009716;28;20026;-52
2022/02/27 00:38:16;;;;;;;16.27;7.05;;;3.80;99.90;;;;;;5010018;28;20025;-49
2022/02/27 00:40:42;;;;;;;18.58;7.53;;;3.70;99.90;;;;;;5009719;28;20076;-50
2022/02/27 00:43:07;;;;;;;17.95;6.97;;;3.70;99.90;;;;;;5009789;28;20030;-48
2022/02/27 00:45:33;;;;;;;14.73;6.53;;;3.70;99.90;;;;;;5010026;28;20398;-49
2022/02/27 00:47:59;;;;;;;17.75;7.07;;;3.70;99.90;;;;;;5010243;28;20658;-48
2022/02/27 00:50:25;;;;;;;17.58;7.15;;;3.70;99.90;;;;;;5009671;28;20104;-51
2022/02/27 00:52:50;;;;;;;15.48;6.38;;;3.70;99.90;;;;;;5009689;28;20115;-49
2022/02/27 00:55:16;;;;;;;18.95;7.30;;;3.70;99.90;;;;;;5011093;28;20040;-50
2022/02/27 00:57:41;;;;;;;19.40;7.57;;;3.70;99.90;;;;;;5011459;28;20030;-50
2022/02/27 01:00:07;;;;;;;21.90;7.07;;;3.60;99.90;;;;;;5012439;28;20033;-51
2022/02/27 01:02:33;;;;;;;13.65;7.82;;;3.50;99.90;;;;;;5011045;28;20029;-53
2022/02/27 01:04:59;;;;;;;14.75;7.55;;;3.50;99.90;;;;;;5011901;28;20026;-49
2022/02/27 01:07:24;;;;;;;13.55;6.80;;;3.50;99.90;;;;;;5012513;28;20100;-50
2022/02/27 01:09:50;;;;;;;21.73;7.57;;;3.40;99.90;;;;;;5012146;28;20100;-50
2022/02/27 01:12:16;;;;;;;15.60;7.55;;;3.40;99.90;;;;;;5012166;28;20034;-52
2022/02/27 01:14:41;;;;;;;19.00;7.90;;;3.40;99.90;;;;;;5012195;28;20038;-49
2022/02/27 01:17:07;;;;;;;15.80;7.45;;;3.30;99.90;;;;;;5012264;28;20038;-49
2022/02/27 01:19:34;;;;;;;20.45;7.47;;;3.30;99.90;;;;;;5012371;28;20076;-52
2022/02/27 01:22:00;;;;;;;22.13;7.45;;;3.20;99.90;;;;;;5012227;28;20420;-49
2022/02/27 01:24:25;;;;;;;18.17;8.48;;;3.10;99.90;;;;;;5032123;23;20094;-53
2022/02/27 01:26:51;;;;;;;21.10;7.63;;;3.00;99.90;;;;;;4992460;28;20505;-50
2022/02/27 01:29:16;;;;;;;13.52;7.68;;;3.00;99.90;;;;;;4991214;28;20023;-54
2022/02/27 01:31:42;;;;;;;26.33;8.50;;;3.00;99.90;;;;;;4992597;28;20414;-50
2022/02/27 01:34:07;;;;;;;21.10;7.63;;;3.00;99.90;;;;;;4992244;28;20486;-50
2022/02/27 01:36:33;;;;;;;18.10;7.07;;;3.00;99.90;;;;;;4992518;28;20029;-49
2022/02/27 01:38:59;;;;;;;21.33;9.27;;;3.00;99.90;;;;;;4990996;28;20516;-54
2022/02/27 01:41:25;;;;;;;24.02;11.23;;;2.90;99.90;;;;;;4992367;28;20598;-48
2022/02/27 01:43:51;;;;;;;27.83;11.13;;;2.90;99.90;;;;;;4992013;28;20133;-50
2022/02/27 01:46:16;;;;;;;25.58;10.85;;;3.00;99.90;;;;;;4992519;28;20101;-49
2022/02/27 01:48:42;;;;;;;33.13;10.15;;;3.00;99.90;;;;;;4991040;28;20128;-49
2022/02/27 01:51:08;;;;;;;23.02;10.55;;;2.90;99.90;;;;;;4991096;28;20041;-51
2022/02/27 01:53:33;;;;;;;24.75;8.43;;;2.80;99.90;;;;;;4991972;28;20065;-49
2022/02/27 01:56:00;;;;;;;15.85;8.75;;;2.70;99.90;;;;;;4992214;28;20031;-47
2022/02/27 01:58:26;;;;;;;18.50;8.60;;;2.60;99.90;;;;;;4992326;28;20029;-50
2022/02/27 02:00:52;;;;;;;20.27;8.07;;;2.50;99.90;;;;;;4991844;28;20030;-50
2022/02/27 02:03:17;;;;;;;25.23;7.55;;;2.40;99.90;;;;;;4993927;28;20030;-52
2022/02/27 02:05:43;;;;;;;12.98;7.22;;;2.40;99.90;;;;;;4992421;28;20035;-51
2022/02/27 02:08:08;;;;;;;22.38;7.93;;;2.30;99.90;;;;;;4994411;28;20091;-51
2022/02/27 02:10:34;;;;;;;18.88;7.22;;;2.30;99.90;;;;;;4997933;28;20117;-49
2022/02/27 02:13:00;;;;;;;18.10;8.45;;;2.20;99.90;;;;;;4996463;28;20035;-51
2022/02/27 02:15:25;;;;;;;26.67;8.18;;;2.20;99.90;;;;;;4978857;28;20026;-50
2022/02/27 02:17:51;;;;;;;22.02;8.80;;;2.20;99.90;;;;;;4995089;28;20064;-51
2022/02/27 02:20:18;;;;;;;22.23;8.57;;;2.10;99.90;;;;;;4995872;28;20034;-49
2022/02/27 02:22:44;;;;;;;18.88;8.52;;;2.00;99.90;;;;;;4996021;28;20019;-50
2022/02/27 02:25:09;;;;;;;14.63;7.93;;;2.00;99.90;;;;;;4996089;28;20031;-53
2022/02/27 02:27:35;;;;;;;14.57;8.98;;;1.90;99.90;;;;;;4997503;28;20026;-53
2022/02/27 02:30:00;;;;;;;21.45;8.57;;;1.90;99.90;;;;;;4997305;28;20034;-52
2022/02/27 02:32:27;;;;;;;19.98;8.25;;;1.80;99.90;;;;;;4997224;28;20053;-51
2022/02/27 02:34:53;;;;;;;21.33;8.48;;;1.80;99.90;;;;;;4996422;28;20093;-51
2022/02/27 02:37:19;;;;;;;21.52;9.85;;;1.80;99.90;;;;;;4995951;28;20023;-48
2022/02/27 02:39:44;;;;;;;20.23;9.13;;;1.70;99.90;;;;;;4995478;28;20065;-50
2022/02/27 02:42:10;;;;;;;23.35;9.25;;;1.70;99.90;;;;;;4995516;28;20050;-52
2022/02/27 02:44:35;;;;;;;19.15;8.07;;;1.60;99.90;;;;;;4994024;28;20050;-47
2022/02/27 02:47:01;;;;;;;17.30;8.70;;;1.60;99.90;;;;;;4995531;28;20030;-48
2022/02/27 02:49:27;;;;;;;26.95;9.48;;;1.60;99.90;;;;;;4995268;28;20057;-51
2022/02/27 02:51:53;;;;;;;24.75;10.10;;;1.50;99.90;;;;;;4994303;28;20037;-49
2022/02/27 02:54:19;;;;;;;19.88;9.40;;;1.50;99.90;;;;;;4993655;28;20034;-52
2022/02/27 02:56:44;;;;;;;18.60;8.75;;;1.50;99.90;;;;;;4995253;28;20379;-48
2022/02/27 02:59:10;;;;;;;24.42;8.80;;;1.50;99.90;;;;;;4995166;28;20481;-50
2022/02/27 03:01:36;;;;;;;21.63;8.82;;;1.40;99.90;;;;;;4995195;28;20474;-47
2022/02/27 03:04:03;;;;;;;15.88;8.57;;;1.40;99.90;;;;;;4994486;28;20026;-47
2022/02/27 03:06:30;;;;;;;18.52;9.85;;;1.50;99.90;;;;;;4994994;28;20478;-48
2022/02/27 03:08:56;;;;;;;17.42;10.35;;;1.40;99.90;;;;;;4995124;28;20069;-51
2022/02/27 03:11:23;;;;;;;20.95;8.88;;;1.40;99.90;;;;;;4993724;28;20041;-51
2022/02/27 03:13:50;;;;;;;18.05;8.82;;;1.30;99.90;;;;;;4993371;28;20031;-50
2022/02/27 03:16:16;;;;;;;24.33;11.35;;;1.30;99.90;;;;;;4994833;28;20383;-52
2022/02/27 03:18:42;;;;;;;22.00;10.05;;;1.30;99.90;;;;;;4994334;28;20442;-48
2022/02/27 03:21:08;;;;;;;20.38;8.93;;;1.30;99.90;;;;;;4994726;28;20088;-50
2022/02/27 03:23:35;;;;;;;30.88;9.70;;;1.20;99.90;;;;;;4994525;28;20030;-50
2022/02/27 03:26:01;;;;;;;25.77;9.20;;;1.30;99.90;;;;;;4993310;28;20044;-51
2022/02/27 03:28:27;;;;;;;18.83;8.73;;;1.20;99.90;;;;;;4994670;28;20057;-47
2022/02/27 03:30:53;;;;;;;23.45;10.15;;;1.20;99.90;;;;;;4994651;28;20038;-51
2022/02/27 03:33:20;;;;;;;20.73;8.60;;;1.20;99.90;;;;;;4994169;28;20031;-48
2022/02/27 03:35:45;;;;;;;21.10;10.05;;;1.20;99.90;;;;;;4994796;28;20085;-49
2022/02/27 03:38:11;;;;;;;22.15;9.43;;;1.10;99.90;;;;;;4994508;28;20023;-50
2022/02/27 03:40:37;;;;;;;21.17;8.82;;;1.10;99.90;;;;;;4992928;28;20487;-48
2022/02/27 03:43:03;;;;;;;16.70;8.43;;;1.10;99.90;;;;;;4994134;28;20030;-48
2022/02/27 03:45:28;;;;;;;19.77;9.35;;;1.00;99.90;;;;;;4994365;28;20525;-48
2022/02/27 03:47:57;;;;;;;20.40;9.55;;;0.90;99.90;;;;;;4994447;28;20046;-48
2022/02/27 03:50:22;;;;;;;17.48;9.35;;;1.00;99.90;;;;;;4994219;28;20030;-50
2022/02/27 03:52:48;;;;;;;25.90;10.68;;;0.90;99.90;;;;;;4994165;28;20084;-50
2022/02/27 03:55:16;;;;;;;17.98;8.75;;;0.90;99.90;;;;;;4994159;28;20041;-49
2022/02/27 03:57:41;;;;;;;18.50;9.00;;;0.80;99.90;;;;;;4994182;28;20031;-48
2022/02/27 04:00:13;;;;;;;18.10;8.98;;;0.80;99.90;;;;;;4993989;28;20030;-48
2022/02/27 04:02:40;;;;;;;19.83;10.52;;;0.80;99.90;;;;;;4994080;28;20026;-48
2022/02/27 04:05:06;;;;;;;18.73;7.75;;;0.80;99.90;;;;;;4993475;28;20026;-51
2022/02/27 04:07:32;;;;;;;27.02;13.32;;;0.70;99.90;;;;;;4993970;28;20018;-50
2022/02/27 04:09:57;;;;;;;20.77;9.20;;;0.70;99.90;;;;;;4993807;28;20062;-48
2022/02/27 04:12:23;;;;;;;23.55;10.25;;;0.60;99.90;;;;;;4993859;28;20096;-53
2022/02/27 04:14:48;;;;;;;28.50;9.43;;;0.70;99.90;;;;;;4993622;28;20488;-51
2022/02/27 04:17:14;;;;;;;20.58;7.80;;;0.60;99.90;;;;;;4993811;28;20035;-51
2022/02/27 04:19:39;;;;;;;24.17;9.05;;;0.60;99.90;;;;;;4995716;28;20022;-52
2022/02/27 04:22:05;;;;;;;18.23;9.60;;;0.70;99.90;;;;;;4994130;28;20025;-52
2022/02/27 04:24:31;;;;;;;24.33;9.13;;;0.70;99.90;;;;;;4993239;28;20023;-53
2022/02/27 04:26:58;;;;;;;21.55;9.32;;;0.70;99.90;;;;;;4992498;28;20033;-51
2022/02/27 04:29:24;;;;;;;21.25;8.57;;;0.80;99.90;;;;;;4993386;28;20076;-52
2022/02/27 04:31:49;;;;;;;19.30;8.50;;;0.80;99.90;;;;;;4993042;28;20026;-49
2022/02/27 04:34:14;;;;;;;20.38;8.82;;;0.70;99.90;;;;;;4993023;28;20053;-53
2022/02/27 04:36:40;;;;;;;15.93;8.27;;;0.80;99.90;;;;;;4993413;28;20031;-50
2022/02/27 04:39:06;;;;;;;18.23;7.07;;;0.80;99.90;;;;;;4993094;28;20066;-51
2022/02/27 04:41:31;;;;;;;18.10;8.65;;;0.80;99.90;;;;;;4993271;28;20031;-50
2022/02/27 04:43:57;;;;;;;20.20;8.13;;;0.70;99.90;;;;;;4993014;28;20497;-50
2022/02/27 04:46:23;;;;;;;19.60;10.75;;;0.60;99.90;;;;;;4993291;28;20022;-52
2022/02/27 04:48:48;;;;;;;16.13;9.35;;;0.60;99.90;;;;;;4993221;28;20499;-53
2022/02/27 04:51:14;;;;;;;29.85;10.82;;;0.60;99.90;;;;;;4992067;28;20113;-51
2022/02/27 04:53:39;;;;;;;21.17;8.32;;;0.50;99.90;;;;;;4992866;28;20034;-49
2022/02/27 04:56:05;;;;;;;13.50;7.25;;;0.50;99.90;;;;;;4993333;28;20030;-49
2022/02/27 04:58:31;;;;;;;18.70;8.95;;;0.50;99.90;;;;;;4993346;28;20030;-49
2022/02/27 05:00:56;;;;;;;12.10;7.18;;;0.50;99.90;;;;;;4993165;28;20077;-50
2022/02/27 05:03:22;;;;;;;17.17;9.50;;;0.60;99.90;;;;;;4992396;28;20029;-51
2022/02/27 05:05:47;;;;;;;21.05;8.45;;;0.50;99.90;;;;;;4992630;28;20474;-52
2022/02/27 05:08:13;;;;;;;19.20;7.97;;;0.50;99.90;;;;;;4992793;28;20022;-50
2022/02/27 05:10:39;;;;;;;18.08;8.27;;;0.50;99.90;;;;;;4991391;28;20038;-50
2022/02/27 05:13:05;;;;;;;20.13;8.38;;;0.50;99.90;;;;;;4992443;28;20033;-49
2022/02/27 05:15:30;;;;;;;16.92;7.53;;;0.50;99.90;;;;;;4991273;28;20490;-54
2022/02/27 05:17:56;;;;;;;23.67;8.60;;;0.50;99.90;;;;;;4992653;28;20045;-47
2022/02/27 05:20:23;;;;;;;17.92;10.32;;;0.50;99.90;;;;;;4991151;28;20029;-48
2022/02/27 05:22:49;;;;;;;16.33;7.88;;;0.60;99.90;;;;;;4992346;28;20522;-50
2022/02/27 05:25:18;;;;;;;16.85;7.38;;;0.50;99.90;;;;;;4992279;28;20030;-51
2022/02/27 05:27:44;;;;;;;18.73;9.07;;;0.50;99.90;;;;;;4992859;28;20033;-50
2022/02/27 05:30:10;;;;;;;17.20;7.57;;;0.50;99.90;;;;;;4992399;28;20034;-48
2022/02/27 05:32:36;;;;;;;22.67;8.70;;;0.50;99.90;;;;;;4992312;28;20037;-47
2022/02/27 05:35:02;;;;;;;15.73;9.73;;;0.50;99.90;;;;;;4992065;28;20097;-50
2022/02/27 05:37:27;;;;;;;16.52;8.82;;;0.50;99.90;;;;;;4992433;28;20558;-48
2022/02/27 05:39:53;;;;;;;13.10;7.30;;;0.50;99.90;;;;;;4990968;28;20026;-49
2022/02/27 05:42:19;;;;;;;16.83;8.07;;;0.40;99.90;;;;;;4992077;28;20029;-54
2022/02/27 05:44:44;;;;;;;13.88;7.25;;;0.50;99.90;;;;;;4992075;28;20533;-47
2022/02/27 05:47:10;;;;;;;17.92;7.85;;;0.50;99.90;;;;;;4992345;28;20407;-49
2022/02/27 05:49:35;;;;;;;22.98;7.75;;;0.50;99.90;;;;;;4990780;28;20022;-52
2022/02/27 05:52:01;;;;;;;12.80;7.30;;;0.50;99.90;;;;;;4992285;28;20018;-53
2022/02/27 05:54:27;;;;;;;13.38;6.82;;;0.50;99.90;;;;;;4991924;28;20034;-53
2022/02/27 05:56:52;;;;;;;21.52;7.88;;;0.50;99.90;;;;;;4992351;28;20026;-53
2022/02/27 05:59:20;;;;;;;19.63;6.80;;;0.50;99.90;;;;;;4992007;28;20081;-52
2022/02/27 06:01:45;;;;;;;14.63;6.65;;;0.60;99.90;;;;;;4992056;28;20509;-49
2022/02/27 06:04:11;;;;;;;14.88;7.15;;;0.70;99.90;;;;;;4991828;28;20022;-49
2022/02/27 06:06:37;;;;;;;17.25;7.38;;;0.70;99.90;;;;;;4992081;28;20027;-51
2022/02/27 06:09:02;;;;;;;15.70;7.18;;;0.70;99.90;;;;;;4991959;28;20022;-51
2022/02/27 06:11:28;;;;;;;13.23;7.43;;;0.80;99.90;;;;;;4992093;28;20034;-50
2022/02/27 06:13:53;;;;;;;29.20;7.43;;;0.80;99.90;;;;;;4992134;28;20033;-50
2022/02/27 06:16:19;;;;;;;22.17;6.95;;;0.80;99.90;;;;;;4991643;28;20390;-53
2022/02/27 06:18:44;;;;;;;18.50;7.55;;;0.80;99.90;;;;;;4991562;28;20039;-49
2022/02/27 06:21:10;;;;;;;17.85;6.32;;;0.80;99.90;;;;;;4990740;28;20037;-53
2022/02/27 06:23:35;;;;;;;18.33;7.10;;;0.80;99.90;;;;;;4991813;28;20026;-48
2022/02/27 06:26:00;;;;;;;12.15;5.90;;;0.80;99.90;;;;;;4992426;28;20038;-48
2022/02/27 06:28:26;;;;;;;16.05;6.85;;;0.80;99.90;;;;;;4992075;28;20023;-49
2022/02/27 06:30:51;;;;;;;17.38;7.55;;;0.80;99.90;;;;;;4990797;28;20037;-48
2022/02/27 06:33:17;;;;;;;16.08;7.00;;;0.90;99.90;;;;;;4991763;28;20023;-48
2022/02/27 06:35:43;;;;;;;14.98;5.35;;;1.00;99.90;;;;;;4990479;28;20022;-49
2022/02/27 06:38:08;;;;;;;14.40;6.32;;;1.10;99.90;;;;;;4991638;28;20442;-51
2022/02/27 06:40:34;;;;;;;16.25;6.28;;;1.20;99.90;;;;;;4991637;28;20034;-51
2022/02/27 06:43:04;;;;;;;15.82;7.65;;;1.30;99.90;;;;;;4991453;28;20526;-49
2022/02/27 06:45:30;;;;;;;14.70;6.28;;;1.40;99.90;;;;;;4991593;28;20034;-49
2022/02/27 06:47:55;;;;;;;14.10;6.88;;;1.50;99.90;;;;;;4991735;28;20069;-48
2022/02/27 06:50:23;;;;;;;19.65;6.47;;;1.60;99.90;;;;;;4991596;28;20394;-48
2022/02/27 06:52:49;;;;;;;9.82;6.75;;;1.70;99.90;;;;;;4991373;28;20082;-46
2022/02/27 06:55:15;;;;;;;20.67;8.50;;;1.70;99.90;;;;;;4994955;28;20026;-51
2022/02/27 06:57:42;;;;;;;12.20;6.40;;;1.70;99.90;;;;;;4993971;28;20026;-52
2022/02/27 07:00:09;;;;;;;12.82;6.78;;;1.80;99.90;;;;;;4995062;28;20022;-50
2022/02/27 07:02:34;;;;;;;16.38;6.97;;;1.80;99.90;;;;;;4993787;28;20069;-54
2022/02/27 07:05:01;;;;;;;14.68;6.18;;;1.90;99.90;;;;;;4994536;28;20034;-50
2022/02/27 07:07:26;;;;;;;14.95;7.78;;;2.10;99.90;;;;;;4995131;28;20022;-48
2022/02/27 07:09:52;;;;;;;13.30;6.00;;;2.40;99.90;;;;;;4993590;28;20022;-49
2022/02/27 07:12:17;;;;;;;12.95;5.75;;;2.90;99.90;;;;;;4995042;28;20105;-53
2022/02/27 07:14:43;;;;;;;16.95;6.07;;;3.30;99.90;;;;;;4994619;28;20037;-47
2022/02/27 07:17:09;;;;;;;11.43;5.80;;;3.80;99.90;;;;;;4994905;28;20096;-50
2022/02/27 07:19:36;;;;;;;16.65;6.20;;;4.20;99.90;;;;;;4994968;28;20029;-59
2022/02/27 07:22:02;;;;;;;16.52;6.45;;;4.50;99.90;;;;;;4994454;28;20306;-56
2022/02/27 07:24:27;;;;;;;14.15;6.30;;;4.80;99.90;;;;;;4992799;28;20030;-51
2022/02/27 07:26:53;;;;;;;12.00;6.60;;;4.70;99.90;;;;;;4988885;28;20097;-54
2022/02/27 07:29:19;;;;;;;15.85;5.97;;;4.60;99.90;;;;;;4984292;28;20023;-52
2022/02/27 07:31:44;;;;;;;17.23;5.95;;;4.80;99.90;;;;;;4993915;28;20034;-50
2022/02/27 07:34:12;;;;;;;15.07;5.90;;;5.40;99.90;;;;;;4993382;28;20034;-53
2022/02/27 07:36:37;;;;;;;9.48;6.38;;;5.90;99.90;;;;;;4994147;28;20026;-53
2022/02/27 07:39:03;;;;;;;17.95;5.70;;;6.30;99.90;;;;;;4992374;28;20057;-51
2022/02/27 07:41:29;;;;;;;15.40;5.78;;;6.20;99.90;;;;;;4985276;28;20117;-51
2022/02/27 07:43:55;;;;;;;14.40;5.85;;;5.20;99.90;;;;;;4994079;28;20025;-55
2022/02/27 07:46:21;;;;;;;20.17;7.53;;;5.10;99.90;;;;;;4991200;28;20026;-51
2022/02/27 07:48:46;;;;;;;14.50;6.88;;;4.50;99.90;;;;;;4993272;28;20774;-51
2022/02/27 07:51:12;;;;;;;17.65;6.72;;;4.00;99.90;;;;;;4993744;28;20045;-44
2022/02/27 07:53:37;;;;;;;14.18;6.85;;;3.70;99.90;;;;;;4993788;28;20438;-49
2022/02/27 07:56:03;;;;;;;17.02;6.13;;;3.50;99.90;;;;;;4994148;28;20069;-45
2022/02/27 07:58:28;;;;;;;13.82;6.72;;;3.50;99.90;;;;;;4994183;28;20102;-47
2022/02/27 08:00:54;;;;;;;17.23;6.25;;;3.40;99.90;;;;;;4993870;28;20081;-45
2022/02/27 08:03:19;;;;;;;14.23;7.05;;;3.30;99.90;;;;;;4993119;28;20038;-45
2022/02/27 08:05:45;;;;;;;14.82;6.30;;;3.20;99.90;;;;;;4993837;28;20469;-48
2022/02/27 08:08:10;;;;;;;20.25;7.65;;;3.20;99.90;;;;;;4993927;28;20105;-46
2022/02/27 08:10:36;;;;;;;21.13;9.15;;;3.20;99.90;;;;;;4992563;28;20417;-46
2022/02/27 08:13:01;;;;;;;19.45;6.57;;;3.10;99.90;;;;;;4993659;28;20019;-44
2022/02/27 08:15:27;;;;;;;16.08;7.40;;;3.10;99.90;;;;;;4993684;28;20030;-48
2022/02/27 08:17:54;;;;;;;14.38;7.95;;;3.10;99.90;;;;;;4993776;28;20022;-50
2022/02/27 08:20:20;;;;;;;17.63;6.95;;;3.10;99.90;;;;;;4993540;28;20026;-45
2022/02/27 08:22:46;;;;;;;11.85;7.20;;;3.20;99.90;;;;;;4993465;28;20018;-44
2022/02/27 08:25:12;;;;;;;14.98;6.57;;;3.20;99.90;;;;;;4993384;28;20045;-47
2022/02/27 08:27:38;;;;;;;15.73;7.90;;;3.20;99.90;;;;;;4993540;28;20034;-46
2022/02/27 08:30:05;;;;;;;16.10;6.45;;;3.20;99.90;;;;;;4993453;28;20040;-45
2022/02/27 08:32:31;;;;;;;14.68;7.88;;;3.20;99.90;;;;;;4993647;28;20089;-48
2022/02/27 08:34:56;;;;;;;14.45;6.88;;;3.20;99.90;;;;;;4993167;28;20478;-44
2022/02/27 08:37:22;;;;;;;15.88;6.97;;;3.20;99.90;;;;;;4993374;28;20030;-46
2022/02/27 08:39:47;;;;;;;15.05;7.80;;;3.20;99.90;;;;;;4993095;28;20034;-48
2022/02/27 08:42:13;;;;;;;16.88;6.90;;;3.20;99.90;;;;;;4993358;28;20026;-47
2022/02/27 08:44:38;;;;;;;14.00;7.80;;;3.30;99.90;;;;;;4992875;28;20129;-44
2022/02/27 08:47:05;;;;;;;16.42;7.30;;;3.30;99.90;;;;;;4993092;28;20565;-48
2022/02/27 08:49:33;;;;;;;15.85;8.07;;;3.40;99.90;;;;;;4993178;28;20023;-47
2022/02/27 08:51:59;;;;;;;14.60;8.45;;;3.50;99.90;;;;;;4993289;28;20486;-45
2022/02/27 08:54:25;;;;;;;18.08;8.13;;;3.60;99.90;;;;;;4992941;28;20105;-49
2022/02/27 08:56:50;;;;;;;26.67;8.98;;;3.60;99.90;;;;;;4992938;28;20105;-47
2022/02/27 08:59:16;;;;;;;18.63;7.85;;;3.70;99.90;;;;;;4993257;28;20029;-45
2022/02/27 09:01:42;;;;;;;12.35;7.85;;;3.80;99.90;;;;;;4991912;28;20034;-48
2022/02/27 09:04:09;;;;;;;18.90;8.20;;;3.80;99.90;;;;;;4992370;28;20046;-46
2022/02/27 09:06:35;;;;;;;15.45;7.78;;;3.90;99.90;;;;;;4993087;28;20022;-45
2022/02/27 09:09:00;;;;;;;16.02;7.97;;;4.00;99.90;;;;;;4992953;28;20057;-46
2022/02/27 09:11:26;;;;;;;19.02;7.95;;;4.00;99.90;;;;;;4992863;28;20042;-46
2022/02/27 09:13:52;;;;;;;11.55;6.70;;;4.00;99.90;;;;;;4992848;28;20036;-47
2022/02/27 09:16:17;;;;;;;18.15;8.13;;;4.10;99.90;;;;;;4992429;28;20026;-49
2022/02/27 09:18:43;;;;;;;16.20;7.95;;;4.20;99.90;;;;;;4992675;28;20034;-46
2022/02/27 09:21:09;;;;;;;15.00;7.43;;;4.30;99.90;;;;;;4991354;28;20026;-46
2022/02/27 09:23:35;;;;;;;12.95;7.25;;;4.40;99.90;;;;;;4991153;28;20029;-49
2022/02/27 09:26:01;;;;;;;12.35;6.95;;;4.50;99.90;;;;;;4992586;28;20026;-47
2022/02/27 09:28:28;;;;;;;13.63;6.65;;;4.60;99.90;;;;;;4992601;28;20023;-46
2022/02/27 09:30:54;;;;;;;10.10;6.97;;;4.80;99.90;;;;;;4992500;28;20019;-42
2022/02/27 09:33:19;;;;;;;16.40;6.63;;;5.60;99.90;;;;;;4992494;28;20514;-46
2022/02/27 09:35:45;;;;;;;14.63;6.45;;;6.70;99.90;;;;;;4992148;28;20046;-46
2022/02/27 09:38:10;;;;;;;19.30;7.38;;;7.60;99.90;;;;;;4991983;28;20026;-49
2022/02/27 09:40:36;;;;;;;11.75;6.20;;;8.80;99.60;;;;;;4987154;28;20038;-44
2022/02/27 09:43:02;;;;;;;16.23;7.25;;;9.60;97.00;;;;;;4992215;28;20434;-45
2022/02/27 09:45:28;;;;;;;11.07;5.57;;;10.30;95.70;;;;;;4990509;28;20037;-45
2022/02/27 09:47:54;;;;;;;11.68;5.75;;;10.80;94.30;;;;;;4991497;28;20014;-48
2022/02/27 09:50:22;;;;;;;13.90;6.90;;;11.00;92.80;;;;;;4991925;28;20046;-47
2022/02/27 09:52:48;;;;;;;8.98;5.35;;;10.90;92.20;;;;;;4991667;28;20030;-46
2022/02/27 09:55:14;;;;;;;11.25;5.82;;;11.00;92.00;;;;;;4990095;28;20069;-45
2022/02/27 09:57:46;;;;;;;12.20;6.03;;;11.20;91.70;;;;;;4992126;28;20105;-48
2022/02/27 10:00:15;;;;;;;17.88;6.22;;;11.20;92.40;;;;;;4991815;28;20456;-46
2022/02/27 10:03:05;;;;;;;12.05;5.93;;;11.30;91.80;;;;;;4987524;28;20015;-52
2022/02/27 10:05:32;;;;;;;11.10;5.88;;;10.90;91.70;;;;;;4975408;28;20029;-45
2022/02/27 10:07:59;;;;;;;9.40;5.75;;;10.60;92.50;;;;;;4991946;28;20371;-51
2022/02/27 10:10:25;;;;;;;12.15;6.18;;;10.20;91.90;;;;;;4991676;28;20030;-45
2022/02/27 10:12:51;;;;;;;13.95;5.75;;;9.70;93.10;;;;;;4991077;28;20041;-45
2022/02/27 10:15:17;;;;;;;9.77;5.68;;;9.80;92.90;;;;;;4990355;28;20118;-48
2022/02/27 10:17:43;;;;;;;13.95;5.38;;;9.30;93.40;;;;;;4990871;28;20042;-48
2022/02/27 10:20:15;;;;;;;11.07;5.47;;;9.10;93.90;;;;;;4991828;28;20034;-48
2022/02/27 10:22:52;;;;;;;10.00;5.05;;;9.10;94.30;;;;;;4987717;28;20118;-47
2022/02/27 10:25:28;;;;;;;13.40;6.00;;;9.00;94.20;;;;;;4992816;28;20030;-47
2022/02/27 10:27:55;;;;;;;8.77;5.22;;;9.10;94.00;;;;;;4992393;28;20114;-48
2022/02/27 10:30:36;;;;;;;12.05;5.63;;;9.00;94.10;;;;;;4995989;28;20026;-47
2022/02/27 10:33:04;;;;;;;13.02;6.43;;;8.70;94.40;;;;;;4995287;28;20026;-48
2022/02/27 10:35:45;;;;;;;11.45;6.82;;;8.80;95.60;;;;;;4995494;28;20026;-51
2022/02/27 10:38:14;;;;;;;7.70;6.20;;;8.90;95.10;;;;;;4995347;28;20034;-46
2022/02/27 10:40:48;;;;;;;12.25;5.50;;;8.60;96.00;;;;;;4995418;28;20379;-48
2022/02/27 10:43:15;;;;;;;15.35;7.03;;;8.60;96.80;;;;;;4995200;28;20034;-49
2022/02/27 10:45:42;;;;;;;13.85;7.15;;;8.90;96.10;;;;;;4994420;28;20029;-48
2022/02/27 10:48:16;;;;;;;8.85;6.07;;;9.10;95.80;;;;;;4994069;28;20019;-47
2022/02/27 10:50:44;;;;;;;14.75;6.85;;;9.20;95.10;;;;;;4995362;28;20113;-53
2022/02/27 10:53:12;;;;;;;12.40;6.80;;;8.90;95.40;;;;;;4994506;28;20532;-48
2022/02/27 10:55:38;;;;;;;9.27;5.60;;;8.80;96.10;;;;;;4995030;28;20038;-47
2022/02/27 10:58:04;;;;;;;11.20;5.75;;;8.90;95.60;;;;;;4995112;28;20113;-51
2022/02/27 11:00:35;;;;;;;23.27;12.73;;;9.10;95.60;;;;;;4994873;28;20038;-46
2022/02/27 11:03:06;;;;;;;14.45;6.65;;;9.20;95.40;;;;;;4993347;28;20037;-44
2022/02/27 11:05:34;;;;;;;9.35;5.18;;;9.30;95.20;;;;;;4999642;28;20549;-46
2022/02/27 11:08:03;;;;;;;13.13;5.22;;;9.20;93.80;;;;;;4994995;28;20128;-46
2022/02/27 11:10:32;;;;;;;12.70;6.45;;;8.90;93.50;;;;;;4988010;28;20039;-46
2022/02/27 11:13:00;;;;;;;10.10;4.50;;;8.90;93.60;;;;;;4994397;28;20026;-48
2022/02/27 11:15:26;;;;;;;10.13;5.75;;;8.80;93.60;;;;;;4994641;28;20073;-47
2022/02/27 11:17:52;;;;;;;12.93;4.45;;;8.80;93.90;;;;;;4994704;28;20037;-47
2022/02/27 11:20:19;;;;;;;8.50;4.22;;;8.80;93.40;;;;;;4994732;28;20031;-47
2022/02/27 11:22:50;;;;;;;7.82;3.63;;;8.70;92.80;;;;;;4994809;28;20026;-45
2022/02/27 11:25:16;;;;;;;9.15;3.92;;;8.70;91.60;;;;;;4994655;28;20402;-48
2022/02/27 11:27:47;;;;;;;7.50;3.33;;;8.70;92.00;;;;;;4994373;28;20040;-49
2022/02/27 11:30:18;;;;;;;10.40;3.10;;;8.80;90.50;;;;;;4992572;28;20043;-44
2022/02/27 11:32:46;;;;;;;5.13;3.00;;;8.80;88.90;;;;;;4975182;28;20122;-46
2022/02/27 11:35:38;;;;;;;4.15;2.47;;;8.80;87.40;;;;;;4989394;28;20069;-45
2022/02/27 11:38:09;;;;;;;9.20;4.13;;;9.00;85.50;;;;;;4994135;28;20027;-47
2022/02/27 11:41:10;;;;;;;3.63;2.72;;;9.00;87.00;;;;;;4989008;28;20118;-50
2022/02/27 11:43:40;;;;;;;4.38;3.15;;;9.00;86.60;;;;;;4993410;28;20121;-46
2022/02/27 11:46:08;;;;;;;4.07;3.03;;;9.10;86.70;;;;;;4992755;28;20069;-45
2022/02/27 11:48:58;;;;;;;9.75;3.63;;;8.90;87.10;;;;;;4992985;28;20030;-46
2022/02/27 11:51:36;;;;;;;6.45;3.83;;;8.80;88.90;;;;;;4989198;28;20560;-46
2022/02/27 11:54:05;;;;;;;6.07;3.63;;;8.70;90.40;;;;;;4993834;28;20046;-45
2022/02/27 11:56:31;;;;;;;4.20;3.40;;;8.70;90.40;;;;;;4991727;28;20053;-45
2022/02/27 11:58:57;;;;;;;9.48;3.97;;;8.60;90.10;;;;;;4993948;28;20034;-46
2022/02/27 12:01:47;;;;;;;7.93;3.83;;;8.50;91.20;;;;;;4994136;28;20557;-45
2022/02/27 12:04:19;;;;;;;7.90;3.45;;;8.60;91.00;;;;;;4992974;28;20030;-43
2022/02/27 12:06:58;;;;;;;5.63;4.15;;;8.60;90.20;;;;;;4993957;28;20061;-46
2022/02/27 12:09:24;;;;;;;4.47;3.67;;;8.50;90.10;;;;;;4977408;28;20026;-44
2022/02/27 12:11:49;;;;;;;7.93;3.60;;;8.50;89.00;;;;;;4974504;28;20023;-43
2022/02/27 12:14:14;;;;;;;7.32;3.10;;;8.50;89.10;;;;;;4973943;28;20491;-47
2022/02/27 12:16:40;;;;;;;7.97;4.00;;;8.50;90.20;;;;;;4974332;28;20027;-44
2022/02/27 12:19:31;;;;;;;6.97;3.70;;;8.50;90.30;;;;;;4974249;28;20026;-45
2022/02/27 12:21:59;;;;;;;7.80;3.53;;;8.60;89.20;;;;;;4973744;28;20034;-46
2022/02/27 12:24:32;;;;;;;6.82;3.88;;;8.50;88.30;;;;;;4973885;28;20030;-45
2022/02/27 12:27:01;;;;;;;5.47;3.42;;;8.50;89.70;;;;;;4974341;28;20467;-44
2022/02/27 12:29:28;;;;;;;9.40;3.85;;;8.50;90.60;;;;;;4991381;28;20525;-49
2022/02/27 12:31:55;;;;;;;10.73;3.80;;;8.40;90.20;;;;;;4990919;28;20482;-51
2022/02/27 12:34:23;;;;;;;6.25;3.10;;;8.40;90.60;;;;;;4992534;28;20480;-49
2022/02/27 12:36:59;;;;;;;54.58;29.13;;;8.40;89.10;;;;;;4993239;28;20022;-45
2022/02/27 12:39:25;;;;;;;27.40;14.00;;;8.40;89.40;;;;;;4993534;28;20034;-47
2022/02/27 12:41:54;;;;;;;6.38;4.03;;;8.50;87.40;;;;;;4993219;28;20374;-48
2022/02/27 12:44:34;;;;;;;8.30;3.65;;;8.50;90.30;;;;;;4991924;28;20022;-49
2022/02/27 12:47:10;;;;;;;5.20;3.28;;;8.60;90.10;;;;;;4973188;28;20030;-44